Wetterdaten: Woche 01.12.14 - 07.12.14 (KW49)
Datum Zeit Temp. A. Feuchte A. Luftdruck Regen Wind Richtung Taupunkt Windchill Windben
01.12.2014 00:00 1,9 C 80 % 1015,1 hPa 0,0 l/m 1,4 km/h N -1,2 C 1,9 C 8,4 km/h
01.12.2014 01:00 1,8 C 80 % 1015,1 hPa 0,3 l/m 2,3 km/h N -1,3 C 1,8 C 12,1 km/h
01.12.2014 02:00 1,7 C 80 % 1014,9 hPa 0,0 l/m 2,9 km/h N -1,4 C 1,7 C 16,9 km/h
01.12.2014 03:00 1,7 C 80 % 1014,8 hPa 0,0 l/m 2,5 km/h N -1,4 C 1,7 C 14,1 km/h
01.12.2014 04:00 1,8 C 80 % 1014,5 hPa 0,3 l/m 2,4 km/h N -1,3 C 1,8 C 12,9 km/h
01.12.2014 05:00 1,9 C 80 % 1014,5 hPa 0,0 l/m 1,8 km/h N -1,2 C 1,9 C 10,1 km/h
01.12.2014 06:00 2,0 C 80 % 1014,6 hPa 0,5 l/m 1,3 km/h N -1,1 C 2,0 C 7,2 km/h
01.12.2014 07:00 2,1 C 80 % 1014,4 hPa 3,1 l/m 1,4 km/h N -1,0 C 2,1 C 9,6 km/h
01.12.2014 08:00 2,0 C 80 % 1014,5 hPa 1,8 l/m 1,9 km/h N -1,1 C 2,0 C 9,3 km/h
01.12.2014 09:00 2,1 C 80 % 1014,4 hPa 0,3 l/m 1,5 km/h N -1,0 C 2,1 C 8,4 km/h
01.12.2014 10:00 2,3 C 80 % 1014,4 hPa 0,5 l/m 1,8 km/h N -0,8 C 2,3 C 8,8 km/h
01.12.2014 11:00 2,3 C 80 % 1013,8 hPa 0,3 l/m 1,7 km/h N -0,8 C 2,3 C 9,7 km/h
01.12.2014 12:00 2,4 C 80 % 1013,2 hPa 0,0 l/m 1,7 km/h N -0,7 C 2,4 C 8,4 km/h
01.12.2014 13:00 2,3 C 80 % 1012,8 hPa 0,3 l/m 2,2 km/h N -0,8 C 2,3 C 12,5 km/h
01.12.2014 14:00 2,1 C 80 % 1012,2 hPa 0,3 l/m 1,5 km/h N -1,0 C 2,1 C 9,3 km/h
01.12.2014 15:00 1,8 C 80 % 1012,1 hPa 0,5 l/m 2,8 km/h N -1,2 C 1,8 C 16,9 km/h
01.12.2014 16:00 1,9 C 80 % 1012,3 hPa 0,0 l/m 2,5 km/h N -1,2 C 1,9 C 14,9 km/h
01.12.2014 17:00 1,9 C 80 % 1011,9 hPa 0,3 l/m 1,9 km/h N -1,2 C 1,9 C 10,1 km/h
01.12.2014 18:00 1,9 C 80 % 1011,8 hPa 0,0 l/m 3,0 km/h N -1,2 C 1,9 C 16,9 km/h
01.12.2014 19:00 1,9 C 80 % 1011,9 hPa 0,3 l/m 2,0 km/h N -1,2 C 1,9 C 10,5 km/h
01.12.2014 20:00 1,8 C 80 % 1011,5 hPa 0,0 l/m 2,7 km/h N -1,2 C 1,8 C 12,5 km/h
01.12.2014 21:00 1,7 C 80 % 1011,4 hPa 0,0 l/m 2,5 km/h N -1,3 C 1,7 C 11,3 km/h
01.12.2014 22:00 1,7 C 80 % 1011,3 hPa 0,0 l/m 2,3 km/h N -1,4 C 1,7 C 14,1 km/h
01.12.2014 23:00 1,6 C 80 % 1011,4 hPa 0,0 l/m 1,8 km/h N -1,5 C 1,6 C 12,5 km/h
02.12.2014 00:00 1,6 C 80 % 1011,2 hPa 0,0 l/m 1,1 km/h N -1,5 C 1,6 C 6,8 km/h
02.12.2014 01:00 1,7 C 80 % 1011,2 hPa 0,3 l/m 0,7 km/h N -1,4 C 1,7 C 6,8 km/h
02.12.2014 02:00 1,6 C 80 % 1011,3 hPa 0,0 l/m 1,4 km/h N -1,4 C 1,6 C 9,6 km/h
02.12.2014 03:00 1,6 C 80 % 1011,1 hPa 0,0 l/m 0,8 km/h N -1,5 C 1,6 C 6,8 km/h
02.12.2014 04:00 1,4 C 80 % 1011,3 hPa 0,0 l/m 1,2 km/h N -1,7 C 1,4 C 8,4 km/h
02.12.2014 05:00 1,3 C 80 % 1011,6 hPa 0,0 l/m 1,3 km/h N -1,8 C 1,3 C 9,7 km/h
02.12.2014 06:00 1,3 C 80 % 1011,9 hPa 0,0 l/m 1,3 km/h N -1,8 C 1,3 C 9,3 km/h
02.12.2014 07:00 1,1 C 81 % 1012,2 hPa 0,0 l/m 1,6 km/h N -1,8 C 1,1 C 8,9 km/h
02.12.2014 08:00 1,2 C 81 % 1012,6 hPa 0,0 l/m 1,3 km/h N -1,8 C 1,2 C 10,1 km/h
02.12.2014 09:00 1,3 C 80 % 1013,0 hPa 0,0 l/m 1,8 km/h N -1,8 C 1,3 C 11,3 km/h
02.12.2014 10:00 1,4 C 80 % 1013,3 hPa 0,3 l/m 1,6 km/h N -1,7 C 1,4 C 9,7 km/h
02.12.2014 11:00 1,7 C 80 % 1013,2 hPa 0,0 l/m 1,0 km/h N -1,4 C 1,7 C 7,6 km/h
02.12.2014 12:00 1,8 C 80 % 1013,3 hPa 0,0 l/m 0,6 km/h N -1,2 C 1,8 C 4,8 km/h
02.12.2014 13:00 1,8 C 81 % 1013,1 hPa 0,0 l/m 1,8 km/h N -1,1 C 1,8 C 8,0 km/h
02.12.2014 14:00 1,9 C 81 % 1013,1 hPa 0,3 l/m 1,3 km/h N -1,0 C 1,9 C 6,8 km/h
02.12.2014 15:00 1,9 C 81 % 1013,3 hPa 0,0 l/m 1,4 km/h N -1,0 C 1,9 C 7,2 km/h
02.12.2014 16:00 1,9 C 81 % 1013,7 hPa 0,0 l/m 1,7 km/h N -1,0 C 1,9 C 8,4 km/h
02.12.2014 17:00 1,9 C 81 % 1014,0 hPa 0,0 l/m 0,9 km/h N -1,0 C 1,9 C 6,0 km/h
02.12.2014 18:00 1,9 C 81 % 1014,3 hPa 0,0 l/m 1,3 km/h N -1,0 C 1,9 C 7,2 km/h
02.12.2014 19:00 2,0 C 81 % 1014,7 hPa 0,0 l/m 0,9 km/h N -0,9 C 2,0 C 6,0 km/h
02.12.2014 20:00 2,0 C 81 % 1015,3 hPa 0,0 l/m 1,0 km/h N -0,9 C 2,0 C 5,6 km/h
02.12.2014 21:00 2,2 C 81 % 1015,6 hPa 0,0 l/m 0,8 km/h N -0,7 C 2,2 C 5,2 km/h
02.12.2014 22:00 2,3 C 81 % 1016,0 hPa 0,0 l/m 0,9 km/h N -0,6 C 2,3 C 7,2 km/h
02.12.2014 23:00 2,6 C 80 % 1016,2 hPa 0,3 l/m 0,9 km/h N -0,4 C 2,6 C 6,0 km/h
03.12.2014 00:00 2,8 C 81 % 1016,4 hPa 0,0 l/m 1,6 km/h N -0,3 C 2,8 C 8,9 km/h
03.12.2014 01:00 2,9 C 80 % 1016,6 hPa 0,0 l/m 2,6 km/h N -0,2 C 2,9 C 12,1 km/h
03.12.2014 02:00 2,9 C 80 % 1016,9 hPa 0,0 l/m 2,1 km/h N -0,2 C 2,9 C 9,3 km/h
03.12.2014 03:00 2,8 C 80 % 1016,9 hPa 0,0 l/m 3,5 km/h N -0,3 C 2,8 C 11,3 km/h
03.12.2014 04:00 2,9 C 80 % 1017,0 hPa 0,3 l/m 4,4 km/h N -0,2 C 2,9 C 14,5 km/h
03.12.2014 05:00 3,1 C 80 % 1017,2 hPa 0,0 l/m 5,0 km/h N -0,0 C 3,1 C 17,3 km/h
03.12.2014 06:00 3,2 C 80 % 1017,4 hPa 0,3 l/m 5,4 km/h N 0,1 C 3,2 C 16,9 km/h
03.12.2014 07:00 3,3 C 80 % 1018,0 hPa 0,0 l/m 4,5 km/h N 0,2 C 3,3 C 14,1 km/h
03.12.2014 08:00 3,3 C 80 % 1018,8 hPa 0,3 l/m 4,6 km/h N 0,2 C 3,3 C 12,9 km/h
03.12.2014 09:00 3,4 C 80 % 1019,2 hPa 0,0 l/m 4,9 km/h N 0,3 C 3,4 C 16,5 km/h
03.12.2014 10:00 3,6 C 80 % 1019,5 hPa 0,0 l/m 3,5 km/h N 0,4 C 3,6 C 14,5 km/h
03.12.2014 11:00 3,6 C 81 % 1019,4 hPa 0,0 l/m 3,2 km/h N 0,7 C 3,6 C 14,1 km/h
03.12.2014 12:00 3,7 C 81 % 1019,1 hPa 0,0 l/m 3,5 km/h N 0,8 C 3,7 C 13,3 km/h
03.12.2014 13:00 3,8 C 81 % 1019,1 hPa 0,0 l/m 3,6 km/h N 0,9 C 3,8 C 12,5 km/h
03.12.2014 14:00 3,9 C 81 % 1019,3 hPa 0,0 l/m 3,0 km/h N 0,9 C 3,9 C 10,1 km/h
03.12.2014 15:00 4,0 C 81 % 1019,6 hPa 0,0 l/m 2,4 km/h N 1,1 C 4,0 C 13,7 km/h
03.12.2014 16:00 4,0 C 81 % 1019,8 hPa 0,0 l/m 2,6 km/h N 1,1 C 4,0 C 9,6 km/h
03.12.2014 17:00 4,0 C 81 % 1020,3 hPa 0,3 l/m 3,5 km/h N 1,1 C 4,0 C 9,7 km/h
03.12.2014 18:00 4,1 C 81 % 1020,5 hPa 0,0 l/m 3,8 km/h N 1,2 C 4,1 C 12,5 km/h
03.12.2014 19:00 4,2 C 81 % 1020,5 hPa 0,0 l/m 2,7 km/h N 1,2 C 4,2 C 9,3 km/h
03.12.2014 20:00 4,3 C 81 % 1020,8 hPa 0,0 l/m 3,4 km/h N 1,3 C 4,3 C 13,7 km/h
03.12.2014 21:00 4,3 C 81 % 1020,8 hPa 0,0 l/m 4,0 km/h N 1,3 C 4,3 C 13,7 km/h
03.12.2014 22:00 4,3 C 81 % 1020,8 hPa 0,3 l/m 3,3 km/h N 1,3 C 4,3 C 9,7 km/h
03.12.2014 23:00 4,4 C 81 % 1020,8 hPa 0,0 l/m 3,5 km/h N 1,4 C 4,4 C 10,9 km/h
04.12.2014 00:00 4,4 C 81 % 1020,6 hPa 0,0 l/m 3,8 km/h N 1,5 C 4,4 C 13,7 km/h
04.12.2014 01:00 4,4 C 81 % 1020,2 hPa 0,0 l/m 4,0 km/h N 1,5 C 4,4 C 14,1 km/h
04.12.2014 02:00 4,5 C 82 % 1020,2 hPa 0,0 l/m 3,3 km/h N 1,6 C 4,5 C 10,5 km/h
04.12.2014 03:00 4,6 C 82 % 1020,0 hPa 0,0 l/m 3,8 km/h N 1,8 C 4,6 C 12,9 km/h
04.12.2014 04:00 4,6 C 83 % 1020,1 hPa 0,0 l/m 2,3 km/h N 2,1 C 4,6 C 8,4 km/h
04.12.2014 05:00 4,7 C 84 % 1020,3 hPa 0,0 l/m 1,9 km/h N 2,2 C 4,7 C 7,6 km/h
04.12.2014 06:00 4,7 C 84 % 1020,6 hPa 0,0 l/m 1,3 km/h N 2,2 C 4,7 C 7,6 km/h
04.12.2014 07:00 4,6 C 85 % 1020,8 hPa 0,0 l/m 2,6 km/h N 2,3 C 4,6 C 12,1 km/h
04.12.2014 08:00 4,6 C 85 % 1021,0 hPa 0,0 l/m 2,8 km/h N 2,3 C 4,6 C 10,0 km/h
04.12.2014 09:00 4,9 C 86 % 1020,9 hPa 0,0 l/m 4,8 km/h N 2,8 C 4,9 C 14,9 km/h
04.12.2014 10:00 5,3 C 86 % 1020,5 hPa 0,0 l/m 6,8 km/h N 3,2 C 4,8 C 18,9 km/h
04.12.2014 11:00 5,4 C 85 % 1020,0 hPa 0,0 l/m 4,7 km/h N 3,1 C 5,4 C 15,7 km/h
04.12.2014 12:00 5,6 C 85 % 1019,8 hPa 0,0 l/m 3,7 km/h N 3,3 C 5,6 C 14,1 km/h
04.12.2014 13:00 5,7 C 85 % 1019,3 hPa 0,0 l/m 2,6 km/h N 3,4 C 5,7 C 10,9 km/h
04.12.2014 14:00 5,7 C 85 % 1019,2 hPa 0,0 l/m 3,8 km/h N 3,3 C 5,7 C 13,7 km/h
04.12.2014 15:00 5,7 C 84 % 1019,3 hPa 0,0 l/m 5,6 km/h N 3,2 C 5,5 C 20,1 km/h
04.12.2014 16:00 5,4 C 86 % 1019,4 hPa 0,0 l/m 3,7 km/h N 3,2 C 5,4 C 14,1 km/h
04.12.2014 17:00 5,0 C 86 % 1019,7 hPa 0,0 l/m 2,8 km/h N 2,8 C 5,0 C 14,1 km/h
04.12.2014 18:00 4,9 C 85 % 1019,5 hPa 0,0 l/m 2,1 km/h N 2,6 C 4,9 C 10,1 km/h
04.12.2014 19:00 5,1 C 85 % 1019,3 hPa 0,0 l/m 2,7 km/h N 2,7 C 5,1 C 13,7 km/h
04.12.2014 20:00 5,3 C 86 % 1019,0 hPa 0,0 l/m 4,2 km/h N 3,1 C 5,3 C 15,7 km/h
04.12.2014 21:00 5,4 C 86 % 1018,7 hPa 0,0 l/m 5,0 km/h N 3,2 C 5,4 C 19,3 km/h
04.12.2014 22:00 5,2 C 86 % 1018,6 hPa 0,0 l/m 6,8 km/h N 3,1 C 4,6 C 19,3 km/h
04.12.2014 23:00 5,0 C 86 % 1018,5 hPa 0,0 l/m 1,9 km/h N 2,9 C 5,0 C 10,9 km/h
05.12.2014 00:00 5,1 C 86 % 1018,4 hPa 0,0 l/m 1,3 km/h N 3,0 C 5,1 C 8,4 km/h
05.12.2014 01:00 4,9 C 86 % 1017,9 hPa 0,0 l/m 6,7 km/h N 2,8 C 4,3 C 19,3 km/h
05.12.2014 02:00 4,8 C 85 % 1017,8 hPa 0,0 l/m 7,8 km/h N 2,5 C 3,5 C 22,1 km/h
05.12.2014 03:00 4,7 C 85 % 1017,8 hPa 0,0 l/m 4,3 km/h N 2,4 C 4,7 C 15,7 km/h
05.12.2014 04:00 4,8 C 85 % 1017,8 hPa 0,0 l/m 3,3 km/h N 2,5 C 4,8 C 10,9 km/h
05.12.2014 05:00 4,9 C 85 % 1018,1 hPa 0,0 l/m 5,1 km/h N 2,6 C 4,9 C 16,1 km/h
05.12.2014 06:00 5,0 C 85 % 1018,5 hPa 0,0 l/m 3,6 km/h N 2,7 C 5,0 C 13,3 km/h
05.12.2014 07:00 5,1 C 85 % 1018,7 hPa 0,0 l/m 4,7 km/h N 2,8 C 5,1 C 16,9 km/h
05.12.2014 08:00 5,2 C 86 % 1019,1 hPa 0,0 l/m 2,0 km/h N 3,0 C 5,2 C 9,7 km/h
05.12.2014 09:00 5,5 C 86 % 1019,2 hPa 0,0 l/m 1,6 km/h N 3,2 C 5,5 C 9,7 km/h
05.12.2014 10:00 5,8 C 86 % 1019,2 hPa 0,0 l/m 2,9 km/h N 3,6 C 5,8 C 13,3 km/h
05.12.2014 11:00 6,0 C 86 % 1018,9 hPa 0,0 l/m 2,6 km/h N 3,9 C 6,0 C 10,1 km/h
05.12.2014 12:00 6,4 C 84 % 1018,3 hPa 0,0 l/m 2,7 km/h N 3,9 C 6,4 C 10,9 km/h
05.12.2014 13:00 6,4 C 85 % 1017,9 hPa 0,0 l/m 2,2 km/h N 4,0 C 6,4 C 10,5 km/h
05.12.2014 14:00 6,4 C 84 % 1017,8 hPa 0,0 l/m 2,0 km/h N 3,9 C 6,4 C 11,3 km/h
05.12.2014 15:00 6,2 C 85 % 1017,9 hPa 0,0 l/m 1,2 km/h N 3,9 C 6,2 C 6,8 km/h
05.12.2014 16:00 5,9 C 86 % 1018,1 hPa 0,0 l/m 1,7 km/h N 3,6 C 5,9 C 7,6 km/h
05.12.2014 17:00 5,6 C 86 % 1018,2 hPa 0,0 l/m 0,8 km/h N 3,4 C 5,6 C 5,6 km/h
05.12.2014 18:00 5,4 C 86 % 1018,3 hPa 0,0 l/m 0,3 km/h N 3,3 C 5,4 C 3,6 km/h
05.12.2014 19:00 5,3 C 86 % 1018,2 hPa 0,0 l/m 0,4 km/h N 3,1 C 5,3 C 3,6 km/h
05.12.2014 20:00 5,2 C 85 % 1018,3 hPa 0,0 l/m 0,1 km/h N 2,9 C 5,2 C 2,4 km/h
05.12.2014 21:00 5,2 C 85 % 1018,2 hPa 0,0 l/m 0,1 km/h N 2,9 C 5,2 C 2,0 km/h
05.12.2014 22:00 5,2 C 85 % 1018,3 hPa 0,0 l/m 0,2 km/h N 2,9 C 5,2 C 3,6 km/h
05.12.2014 23:00 5,2 C 84 % 1018,3 hPa 0,0 l/m 0,1 km/h N 2,8 C 5,2 C 2,8 km/h
06.12.2014 00:00 5,2 C 84 % 1018,3 hPa 0,0 l/m 0,1 km/h N 2,7 C 5,2 C 2,0 km/h
06.12.2014 01:00 5,1 C 84 % 1018,2 hPa 0,0 l/m 0,1 km/h N 2,6 C 5,1 C 2,0 km/h
06.12.2014 02:00 5,1 C 84 % 1018,3 hPa 0,0 l/m 0,0 km/h N 2,6 C 5,1 C 0,8 km/h
06.12.2014 03:00 5,1 C 84 % 1018,2 hPa 0,0 l/m 0,0 km/h N 2,7 C 5,1 C 0,0 km/h
06.12.2014 04:00 5,2 C 84 % 1018,3 hPa 0,0 l/m 0,0 km/h N 2,7 C 5,2 C 0,0 km/h
06.12.2014 05:00 5,2 C 84 % 1018,3 hPa 0,3 l/m 0,0 km/h N 2,7 C 5,2 C 0,0 km/h
06.12.2014 06:00 5,2 C 84 % 1018,6 hPa 0,0 l/m 0,0 km/h N 2,7 C 5,2 C 0,0 km/h
06.12.2014 07:00 5,2 C 84 % 1019,1 hPa 0,0 l/m 0,0 km/h N 2,6 C 5,2 C 0,8 km/h
06.12.2014 08:00 5,3 C 83 % 1019,3 hPa 0,0 l/m 0,0 km/h N 2,6 C 5,3 C 2,4 km/h
06.12.2014 09:00 5,4 C 83 % 1019,7 hPa 0,0 l/m 0,0 km/h N 2,7 C 5,4 C 4,0 km/h
06.12.2014 10:00 5,4 C 83 % 1020,0 hPa 0,0 l/m 1,6 km/h N 2,8 C 5,4 C 7,2 km/h
06.12.2014 11:00 5,6 C 84 % 1019,9 hPa 0,0 l/m 1,6 km/h N 3,1 C 5,6 C 7,2 km/h
06.12.2014 12:00 5,8 C 85 % 1019,7 hPa 0,0 l/m 1,6 km/h N 3,4 C 5,8 C 7,2 km/h
06.12.2014 13:00 5,9 C 86 % 1019,5 hPa 0,0 l/m 3,2 km/h N 3,7 C 5,9 C 9,7 km/h
06.12.2014 14:00 5,9 C 86 % 1019,6 hPa 0,0 l/m 2,0 km/h N 3,7 C 5,9 C 8,1 km/h
06.12.2014 15:00 5,8 C 86 % 1019,8 hPa 0,0 l/m 1,6 km/h N 3,6 C 5,8 C 7,6 km/h
06.12.2014 16:00 5,7 C 86 % 1020,0 hPa 0,0 l/m 1,3 km/h N 3,5 C 5,7 C 6,4 km/h
06.12.2014 17:00 5,6 C 86 % 1020,0 hPa 0,0 l/m 3,2 km/h N 3,5 C 5,6 C 11,7 km/h
06.12.2014 18:00 5,7 C 86 % 1020,1 hPa 0,3 l/m 2,3 km/h N 3,5 C 5,7 C 11,7 km/h
06.12.2014 19:00 5,5 C 86 % 1020,1 hPa 0,5 l/m 1,9 km/h N 3,3 C 5,5 C 7,2 km/h
06.12.2014 20:00 5,3 C 86 % 1019,9 hPa 0,5 l/m 3,4 km/h N 3,2 C 5,3 C 10,1 km/h
06.12.2014 21:00 5,3 C 86 % 1019,9 hPa 0,5 l/m 2,4 km/h N 3,2 C 5,3 C 9,3 km/h
06.12.2014 22:00 5,3 C 86 % 1019,7 hPa 0,0 l/m 2,8 km/h N 3,2 C 5,3 C 10,1 km/h
06.12.2014 23:00 5,3 C 86 % 1019,7 hPa 0,5 l/m 1,9 km/h N 3,1 C 5,3 C 8,5 km/h
07.12.2014 00:00 5,1 C 86 % 1019,6 hPa 0,8 l/m 2,1 km/h N 3,0 C 5,1 C 8,4 km/h
07.12.2014 01:00 5,0 C 86 % 1019,4 hPa 0,3 l/m 3,8 km/h N 2,9 C 5,0 C 12,5 km/h
07.12.2014 02:00 4,9 C 86 % 1019,4 hPa 0,8 l/m 3,0 km/h N 2,8 C 4,9 C 12,9 km/h
07.12.2014 03:00 4,8 C 86 % 1019,1 hPa 0,3 l/m 4,2 km/h N 2,6 C 4,8 C 13,7 km/h
07.12.2014 04:00 4,7 C 86 % 1018,6 hPa 0,5 l/m 7,1 km/h N 2,5 C 4,1 C 17,3 km/h
07.12.2014 05:00 4,6 C 86 % 1018,7 hPa 0,0 l/m 5,8 km/h N 2,4 C 4,2 C 16,9 km/h
07.12.2014 06:00 4,4 C 86 % 1018,9 hPa 1,0 l/m 5,8 km/h N 2,3 C 4,4 C 18,1 km/h
07.12.2014 07:00 4,5 C 86 % 1019,0 hPa 0,3 l/m 6,2 km/h N 2,4 C 4,4 C 16,1 km/h
07.12.2014 08:00 4,5 C 86 % 1019,1 hPa 0,8 l/m 8,6 km/h N 2,4 C 2,6 C 20,5 km/h
07.12.2014 09:00 4,6 C 86 % 1019,4 hPa 0,5 l/m 7,1 km/h N 2,4 C 3,9 C 20,1 km/h
07.12.2014 10:00 4,6 C 86 % 1019,3 hPa 0,3 l/m 8,6 km/h N 2,4 C 2,7 C 20,9 km/h
07.12.2014 11:00 4,6 C 86 % 1019,0 hPa 0,3 l/m 7,8 km/h N 2,5 C 3,3 C 18,1 km/h
07.12.2014 12:00 4,6 C 86 % 1018,8 hPa 0,0 l/m 7,9 km/h N 2,4 C 3,2 C 20,9 km/h
07.12.2014 13:00 4,5 C 86 % 1018,7 hPa 0,8 l/m 7,3 km/h N 2,3 C 3,6 C 19,3 km/h
07.12.2014 14:00 4,3 C 86 % 1018,5 hPa 1,0 l/m 7,4 km/h N 2,2 C 3,5 C 20,5 km/h
07.12.2014 15:00 4,3 C 86 % 1018,4 hPa 0,8 l/m 5,7 km/h N 2,1 C 3,9 C 15,7 km/h
07.12.2014 16:00 4,1 C 86 % 1018,3 hPa 0,5 l/m 3,4 km/h N 2,0 C 4,1 C 13,7 km/h
07.12.2014 17:00 4,2 C 86 % 1018,2 hPa 0,5 l/m 4,1 km/h N 2,1 C 4,2 C 13,7 km/h
07.12.2014 18:00 4,1 C 87 % 1018,3 hPa 0,3 l/m 6,3 km/h N 2,1 C 3,8 C 18,9 km/h
07.12.2014 19:00 4,1 C 87 % 1018,3 hPa 0,3 l/m 7,4 km/h N 2,2 C 3,3 C 19,7 km/h
07.12.2014 20:00 4,3 C 86 % 1018,3 hPa 0,5 l/m 9,4 km/h N 2,1 C 1,7 C 23,3 km/h
07.12.2014 21:00 4,4 C 87 % 1018,5 hPa 0,3 l/m 7,5 km/h N 2,4 C 3,3 C 21,3 km/h
07.12.2014 22:00 4,4 C 87 % 1018,5 hPa 0,5 l/m 8,6 km/h N 2,4 C 2,4 C 22,5 km/h
07.12.2014 23:00 4,4 C 87 % 1018,6 hPa 0,3 l/m 6,7 km/h N 2,4 C 3,9 C 19,7 km/h
Min-Datum _ 02.12.14 01.12.14 02.12.14 - 05.12.14 - 02.12.14 07.12.14 05.12.14
_ Min-Zeit 07:30 00:00 00:30 - 20:45 - 07:00 20:00 20:45
Minimum _ 1,1 C 80 % 1011,0 hPa - 0,0 km/h - -1,9 C 0,9 C 0,0 km/h
Max-Datum _ 05.12.14 04.12.14 04.12.14 01.12.14 07.12.14 - 05.12.14 05.12.14 07.12.14
_ Max-Zeit 12:33 10:00 08:30 07:30 20:00 - 13:45 13:45 22:00
Maximum _ 6,6 C 87 % 1021,0 hPa 3,1 l/m 10,4 km/h
N
- 4,3 C 6,6 C 27,4 km/h
N
Durchschnitt _ 3,9 C 83 % 1017,4 hPa #25,0 l/m 2,9 km/h N 1,3 C 3,8 C 11,2 km/h